CAT ESP
Pilots school
Telephone 972234126 972 23 41 26
 
Aerbrava - Aeronautical weather

Aeronautical weather

 

This section shows the meteorological information that is used in the practice of students in the pilot school at our center during training, so it may not be current and should be used at your own risk. AERBRAVA is not responsible for its use.

 

ACTUAL WEATHER

Satellite weather image

sat24.com

Servei Meteorològic de Catalunya

 

LEGE 271700Z 27003KT 240V300 CAVOK 07/05 Q0998
LEGE 271630Z VRB01KT 9999 FEW020 SCT045 08/05 Q0998
LEGE 271600Z 13004KT 090V180 9999 FEW020 BKN045 09/05 Q0998
LEGE 271530Z 15005KT 110V170 9999 FEW015 OVC045 09/05 Q0998
LEGE 271500Z 09004KT 9999 FEW015 OVC045 10/04 Q0997
LEGE 271430Z 02003KT 310V080 9999 BKN045 10/05 Q0997
LEGE 271400Z 02009KT 330V070 9999 BKN042 11/03 Q0997
LEGE 271330Z 02004KT 290V060 9999 SCT040 BKN084 13/03 Q0997
TAF LEGE 271100Z 2712/2812 VRB04KT 9999 FEW030 TX13/2713Z TNM02/2806Z   TEMPO 2723/2803 30010KT   PROB40   TEMPO 2712/2715 RA FEW040TCU

Aviation Weather

 
Aerbrava facebook Aerbrava twitter Aerbrava instagram Aerbrava Youtube Aerbrava tumblr Aerbrava flikr Aerbrava pinterest

¡html Vàlid! ¡CSS Vàlid!